Time;durP1;ratioP1;P1;durP2;ratioP2;P2;SDS_P1;SDS_P2;PMS_P1;PMS_P2;Temp;Humidity;BMP_temperature;BMP_pressure;BME280_temperature;BME280_humidity;BME280_pressure;Samples;Min_cycle;Max_cycle;Signal;HPM_P1;HPM_P2
2020/12/26 00:01:20;;;;;;;0.70;0.20;;;2.90;99.90;;;;;;5015208;28;20050;-50
2020/12/26 00:03:48;;;;;;;0.20;0.00;;;2.80;99.90;;;;;;5000264;28;20057;-50
2020/12/26 00:06:15;;;;;;;0.10;0.08;;;2.60;99.90;;;;;;5015162;28;20050;-48
2020/12/26 00:08:44;;;;;;;0.28;0.10;;;2.50;99.90;;;;;;5011841;28;20050;-48
2020/12/26 00:11:14;;;;;;;3.58;0.20;;;2.50;99.90;;;;;;5008359;28;20561;-49
2020/12/26 00:13:41;;;;;;;0.17;0.05;;;2.60;99.90;;;;;;5010566;28;20415;-49
2020/12/26 00:16:09;;;;;;;0.10;0.00;;;2.70;99.90;;;;;;5029414;28;20057;-52
2020/12/26 00:18:37;;;;;;;0.40;0.10;;;2.70;99.90;;;;;;5028623;28;20137;-48
2020/12/26 00:21:09;;;;;;;0.17;0.10;;;2.70;99.90;;;;;;5035142;28;20053;-48
2020/12/26 00:23:37;;;;;;;0.30;0.10;;;2.70;99.90;;;;;;5025048;28;20096;-48
2020/12/26 00:26:03;;;;;;;0.20;0.10;;;2.60;99.90;;;;;;5031346;28;20072;-49
2020/12/26 00:28:30;;;;;;;0.15;0.10;;;2.50;99.90;;;;;;5037287;28;20047;-48
2020/12/26 00:30:57;;;;;;;0.10;0.10;;;2.40;99.90;;;;;;5031893;28;20049;-48
2020/12/26 00:33:24;;;;;;;0.00;0.00;;;2.40;99.90;;;;;;5028461;28;20057;-49
2020/12/26 00:35:51;;;;;;;0.10;0.00;;;2.40;99.90;;;;;;5031414;28;20041;-48
2020/12/26 00:38:17;;;;;;;0.40;0.10;;;2.50;99.90;;;;;;5033106;28;20045;-49
2020/12/26 00:40:44;;;;;;;0.85;0.38;;;2.50;99.90;;;;;;5032398;28;20049;-48
2020/12/26 00:43:12;;;;;;;0.20;0.00;;;2.50;99.90;;;;;;5032945;28;20111;-49
2020/12/26 00:45:38;;;;;;;0.08;0.00;;;2.50;99.90;;;;;;5030782;28;20053;-48
2020/12/26 00:48:05;;;;;;;0.70;0.10;;;2.50;99.90;;;;;;5031656;28;20041;-48
2020/12/26 00:50:32;;;;;;;0.10;0.05;;;2.60;99.90;;;;;;5032215;28;20057;-49
2020/12/26 00:52:58;;;;;;;0.35;0.10;;;2.50;99.90;;;;;;5025368;28;20060;-48
2020/12/26 00:55:25;;;;;;;0.40;0.10;;;2.60;99.90;;;;;;5021637;28;20050;-49
2020/12/26 00:57:52;;;;;;;0.90;0.00;;;2.50;99.90;;;;;;5032526;28;20050;-49
2020/12/26 01:00:18;;;;;;;0.10;0.00;;;2.60;99.90;;;;;;5026143;28;20048;-50
2020/12/26 01:02:45;;;;;;;1.10;0.30;;;2.50;99.90;;;;;;5016106;28;20056;-48
2020/12/26 01:05:12;;;;;;;0.50;0.10;;;2.50;99.90;;;;;;5028766;28;20140;-48
2020/12/26 01:07:38;;;;;;;0.30;0.10;;;2.50;99.90;;;;;;5016147;28;20053;-48
2020/12/26 01:10:05;;;;;;;1.05;0.10;;;2.50;99.90;;;;;;5032602;28;20482;-48
2020/12/26 01:12:32;;;;;;;0.10;0.00;;;2.50;99.90;;;;;;5025146;28;20060;-48
2020/12/26 01:14:59;;;;;;;1.27;0.13;;;2.50;99.90;;;;;;5032116;28;20407;-48
2020/12/26 01:17:26;;;;;;;0.20;0.10;;;2.50;99.90;;;;;;5029425;28;20057;-48
2020/12/26 01:19:57;;;;;;;0.73;0.10;;;2.50;99.90;;;;;;5033444;28;20057;-49
2020/12/26 01:22:24;;;;;;;0.32;0.08;;;2.60;99.90;;;;;;5030498;28;20049;-47
2020/12/26 01:24:51;;;;;;;0.13;0.05;;;2.60;99.90;;;;;;5032952;28;20124;-48
2020/12/26 01:27:17;;;;;;;2.85;0.70;;;2.60;99.90;;;;;;5032022;28;20052;-47
2020/12/26 01:29:47;;;;;;;2.80;0.60;;;2.60;99.90;;;;;;5031394;28;20486;-49
2020/12/26 01:32:13;;;;;;;2.97;0.80;;;2.60;99.90;;;;;;5032536;28;20514;-48
2020/12/26 01:34:40;;;;;;;0.50;0.20;;;2.60;99.90;;;;;;5030320;28;20422;-47
2020/12/26 01:37:06;;;;;;;0.10;0.00;;;2.60;99.90;;;;;;5031807;28;20042;-48
2020/12/26 01:39:33;;;;;;;0.32;0.32;;;2.70;99.90;;;;;;5030032;28;20041;-48
2020/12/26 01:42:00;;;;;;;0.17;0.00;;;2.50;99.90;;;;;;5031352;28;20049;-48
2020/12/26 01:44:26;;;;;;;0.20;0.05;;;2.60;99.90;;;;;;5031558;28;20050;-48
2020/12/26 01:46:53;;;;;;;0.15;0.00;;;2.50;99.90;;;;;;5030224;28;20490;-48
2020/12/26 01:49:23;;;;;;;0.50;0.10;;;2.50;99.90;;;;;;5032058;28;20060;-48
2020/12/26 01:51:50;;;;;;;1.20;0.10;;;2.40;99.90;;;;;;5030420;28;20419;-48
2020/12/26 01:54:17;;;;;;;0.77;0.20;;;2.50;99.90;;;;;;5032947;28;20049;-48
2020/12/26 01:56:47;;;;;;;0.77;0.10;;;2.40;99.90;;;;;;5029700;28;20053;-48
2020/12/26 01:59:13;;;;;;;2.38;0.17;;;2.40;99.90;;;;;;5031271;28;20433;-48
2020/12/26 02:01:42;;;;;;;0.88;0.10;;;2.40;99.90;;;;;;5025632;28;20045;-47
2020/12/26 02:04:10;;;;;;;2.00;0.10;;;2.40;99.90;;;;;;5030841;28;20045;-48
2020/12/26 02:06:55;;;;;;;1.20;0.20;;;2.30;99.90;;;;;;5031503;28;20049;-49
2020/12/26 02:09:23;;;;;;;0.30;0.10;;;2.10;99.90;;;;;;5028270;28;20045;-48
2020/12/26 02:11:50;;;;;;;0.65;0.30;;;2.00;99.90;;;;;;5027518;28;20049;-48
2020/12/26 02:14:17;;;;;;;1.95;0.40;;;2.00;99.90;;;;;;5027176;28;20057;-48
2020/12/26 02:16:48;;;;;;;2.15;0.20;;;1.90;99.90;;;;;;5029983;28;20053;-48
2020/12/26 02:19:17;;;;;;;0.80;0.30;;;1.90;99.90;;;;;;5030430;28;20041;-48
2020/12/26 02:21:43;;;;;;;2.25;0.30;;;1.90;99.90;;;;;;5029979;28;20046;-48
2020/12/26 02:24:11;;;;;;;1.50;0.30;;;1.90;99.90;;;;;;5019420;28;20057;-47
2020/12/26 02:26:38;;;;;;;2.80;0.20;;;1.80;99.90;;;;;;5030358;28;20129;-47
2020/12/26 02:29:06;;;;;;;0.68;0.20;;;1.80;99.90;;;;;;5026457;28;20049;-48
2020/12/26 02:31:34;;;;;;;0.50;0.03;;;1.80;99.90;;;;;;5026428;28;20410;-48
2020/12/26 02:34:02;;;;;;;0.30;0.10;;;1.80;99.90;;;;;;5017170;28;20053;-48
2020/12/26 02:36:29;;;;;;;0.40;0.10;;;1.90;99.90;;;;;;5030196;28;20049;-49
2020/12/26 02:38:56;;;;;;;0.75;0.75;;;1.90;99.90;;;;;;5021481;28;20042;-48
2020/12/26 02:41:23;;;;;;;0.50;0.43;;;1.90;99.90;;;;;;5018603;28;20390;-48
2020/12/26 02:43:49;;;;;;;2.47;0.22;;;1.90;99.90;;;;;;5026661;28;20053;-48
2020/12/26 02:46:16;;;;;;;0.73;0.10;;;1.90;99.90;;;;;;5013653;28;20054;-48
2020/12/26 02:48:43;;;;;;;0.32;0.08;;;1.90;99.90;;;;;;5030559;28;20459;-48
2020/12/26 02:51:10;;;;;;;2.33;0.10;;;1.90;99.90;;;;;;5022936;28;20077;-47
2020/12/26 02:53:36;;;;;;;1.77;0.20;;;2.00;99.90;;;;;;5021130;28;20057;-47
2020/12/26 02:56:03;;;;;;;0.75;0.10;;;1.90;99.90;;;;;;5020695;28;20483;-48
2020/12/26 02:58:30;;;;;;;0.80;0.20;;;1.90;99.90;;;;;;5017663;28;20053;-48
2020/12/26 03:00:57;;;;;;;1.55;0.30;;;1.90;99.90;;;;;;5025142;28;20049;-48
2020/12/26 03:03:23;;;;;;;0.80;0.20;;;1.90;99.90;;;;;;5031146;28;20437;-48
2020/12/26 03:05:50;;;;;;;2.90;0.17;;;1.90;99.90;;;;;;5028088;28;20098;-48
2020/12/26 03:08:16;;;;;;;0.93;0.20;;;1.90;99.90;;;;;;5029774;28;20049;-49
2020/12/26 03:10:43;;;;;;;0.28;0.10;;;1.90;99.90;;;;;;5029122;28;20487;-49
2020/12/26 03:13:09;;;;;;;0.00;0.00;;;1.90;99.90;;;;;;5030119;28;20057;-48
2020/12/26 03:15:36;;;;;;;2.35;0.08;;;2.00;99.90;;;;;;5030665;28;20049;-48
2020/12/26 03:18:03;;;;;;;0.20;0.00;;;2.00;99.90;;;;;;5028781;28;20487;-48
2020/12/26 03:20:30;;;;;;;0.20;0.10;;;2.00;99.90;;;;;;5029090;28;20057;-49
2020/12/26 03:22:58;;;;;;;0.10;0.00;;;2.00;99.90;;;;;;5027656;28;20045;-47
2020/12/26 03:25:25;;;;;;;0.68;0.20;;;2.00;99.90;;;;;;5028174;28;20050;-47
2020/12/26 03:27:51;;;;;;;0.40;0.20;;;1.90;99.90;;;;;;5022815;28;20365;-48
2020/12/26 03:30:18;;;;;;;0.38;0.15;;;2.00;99.90;;;;;;5019692;28;20390;-49
2020/12/26 03:32:44;;;;;;;1.60;0.35;;;2.20;99.90;;;;;;5029505;28;20409;-48
2020/12/26 03:35:12;;;;;;;1.73;0.40;;;2.10;99.90;;;;;;5027706;28;20418;-50
2020/12/26 03:37:39;;;;;;;1.50;0.15;;;2.00;99.90;;;;;;5027821;28;20073;-48
2020/12/26 03:40:08;;;;;;;1.95;0.10;;;2.00;99.90;;;;;;5026911;28;20049;-48
2020/12/26 03:42:35;;;;;;;0.32;0.22;;;2.00;99.90;;;;;;5017810;28;20100;-49
2020/12/26 03:45:03;;;;;;;0.68;0.43;;;2.00;99.90;;;;;;5022006;28;20053;-49
2020/12/26 03:47:30;;;;;;;2.13;0.73;;;2.10;99.90;;;;;;5018290;28;20391;-49
2020/12/26 03:49:57;;;;;;;6.50;1.00;;;2.10;99.90;;;;;;5030893;28;20053;-48
2020/12/26 03:52:23;;;;;;;1.95;0.30;;;2.00;99.90;;;;;;5023632;28;20065;-48
2020/12/26 03:54:50;;;;;;;0.82;0.28;;;2.10;99.90;;;;;;5018822;28;20046;-48
2020/12/26 03:57:16;;;;;;;0.55;0.55;;;2.00;99.90;;;;;;5027944;28;20041;-48
2020/12/26 03:59:43;;;;;;;0.30;0.20;;;2.00;99.90;;;;;;5029643;28;20038;-48
2020/12/26 04:02:09;;;;;;;0.38;0.10;;;2.00;99.90;;;;;;5028931;28;20469;-48
2020/12/26 04:04:36;;;;;;;0.50;0.20;;;2.00;99.90;;;;;;5022980;28;20037;-49
2020/12/26 04:07:03;;;;;;;0.20;0.13;;;2.00;99.90;;;;;;5022953;28;20046;-49
2020/12/26 04:09:30;;;;;;;0.30;0.13;;;1.90;99.90;;;;;;5022811;28;20438;-49
2020/12/26 04:11:57;;;;;;;1.40;0.20;;;1.90;99.90;;;;;;5029432;28;20072;-48
2020/12/26 04:14:23;;;;;;;0.63;0.20;;;1.90;99.90;;;;;;5025861;28;20049;-49
2020/12/26 04:16:59;;;;;;;0.20;0.10;;;1.90;99.90;;;;;;5012619;28;20046;-49
2020/12/26 04:19:26;;;;;;;0.75;0.10;;;1.90;99.90;;;;;;5029194;28;20367;-48
2020/12/26 04:21:55;;;;;;;0.28;0.20;;;1.90;99.90;;;;;;5029946;28;20046;-48
2020/12/26 04:24:22;;;;;;;3.65;0.20;;;1.90;99.90;;;;;;5030112;28;20046;-48
2020/12/26 04:26:50;;;;;;;3.08;0.20;;;1.80;99.90;;;;;;5029013;28;20053;-48
2020/12/26 04:29:21;;;;;;;0.30;0.10;;;1.90;99.90;;;;;;5017868;28;20051;-48
2020/12/26 04:31:50;;;;;;;0.85;0.03;;;1.90;99.90;;;;;;5025814;28;20053;-48
2020/12/26 04:34:17;;;;;;;0.47;0.10;;;1.90;99.90;;;;;;5029040;28;20418;-48
2020/12/26 04:36:43;;;;;;;0.20;0.10;;;2.00;99.90;;;;;;5021667;28;20419;-49
2020/12/26 04:39:10;;;;;;;0.95;0.10;;;2.00;99.90;;;;;;5028696;28;20064;-48
2020/12/26 04:41:37;;;;;;;0.17;0.17;;;2.10;99.90;;;;;;5029773;28;20053;-49
2020/12/26 04:44:05;;;;;;;0.80;0.00;;;2.10;99.90;;;;;;5028869;28;20060;-48
2020/12/26 04:46:35;;;;;;;0.47;0.10;;;2.10;99.90;;;;;;5018677;28;20695;-49
2020/12/26 04:49:09;;;;;;;0.10;0.00;;;2.20;99.90;;;;;;5024567;28;20077;-48
2020/12/26 04:51:39;;;;;;;0.10;0.00;;;2.20;99.90;;;;;;5026087;28;20395;-48
2020/12/26 04:54:25;;;;;;;0.32;0.10;;;2.20;99.90;;;;;;5023584;28;20053;-49
2020/12/26 04:56:56;;;;;;;0.00;0.00;;;2.20;99.90;;;;;;5026342;28;20455;-49
2020/12/26 04:59:23;;;;;;;8.82;0.10;;;2.20;99.90;;;;;;5015817;28;20054;-49
2020/12/26 05:01:51;;;;;;;0.22;0.03;;;2.20;99.90;;;;;;5030304;28;20064;-48
2020/12/26 05:04:18;;;;;;;0.30;0.10;;;2.30;99.90;;;;;;5032060;28;20815;-48
2020/12/26 05:06:50;;;;;;;0.10;0.00;;;2.30;99.90;;;;;;5023638;28;20053;-48
2020/12/26 05:09:19;;;;;;;0.10;0.00;;;2.30;99.90;;;;;;5020814;28;20052;-48
2020/12/26 05:12:00;;;;;;;0.63;0.00;;;2.30;99.90;;;;;;5030625;28;20052;-49
2020/12/26 05:14:29;;;;;;;0.20;0.00;;;2.30;99.90;;;;;;5031259;28;20080;-48
2020/12/26 05:16:56;;;;;;;0.03;0.00;;;2.50;99.90;;;;;;5030673;28;20383;-48
2020/12/26 05:19:22;;;;;;;0.10;0.00;;;2.50;99.90;;;;;;5032257;28;20502;-48
2020/12/26 05:21:55;;;;;;;1.05;0.00;;;2.60;99.90;;;;;;5031358;28;20102;-49
2020/12/26 05:24:22;;;;;;;0.00;0.00;;;2.60;99.90;;;;;;5033008;28;20053;-49
2020/12/26 05:26:51;;;;;;;0.00;0.00;;;2.60;99.90;;;;;;5029557;28;20060;-49
2020/12/26 05:29:22;;;;;;;0.10;0.00;;;2.60;99.90;;;;;;5031513;28;20557;-48
2020/12/26 05:31:54;;;;;;;1.35;0.00;;;2.60;99.90;;;;;;5026849;28;20141;-48
2020/12/26 05:34:34;;;;;;;0.10;0.00;;;2.60;99.90;;;;;;5031582;28;20049;-49
2020/12/26 05:37:02;;;;;;;0.20;0.10;;;2.50;99.90;;;;;;5030202;28;20056;-49
2020/12/26 05:39:39;;;;;;;0.10;0.00;;;2.40;99.90;;;;;;5030156;28;20053;-49
2020/12/26 05:42:06;;;;;;;0.10;0.10;;;2.40;99.90;;;;;;5015103;28;20474;-49
2020/12/26 05:44:37;;;;;;;0.40;0.20;;;2.30;99.90;;;;;;5029779;28;20046;-49
2020/12/26 05:47:05;;;;;;;3.80;0.70;;;2.30;99.90;;;;;;5022569;28;20057;-48
2020/12/26 05:49:35;;;;;;;0.50;0.20;;;2.30;99.90;;;;;;5031380;28;20049;-49
2020/12/26 05:52:05;;;;;;;0.38;0.20;;;2.30;99.90;;;;;;5030703;28;20062;-50
2020/12/26 05:54:32;;;;;;;0.10;0.10;;;2.30;99.90;;;;;;5031470;28;20057;-49
2020/12/26 05:57:09;;;;;;;0.20;0.20;;;2.30;99.90;;;;;;5028220;28;20067;-48
2020/12/26 05:59:36;;;;;;;1.85;0.20;;;2.40;99.90;;;;;;5018943;28;20053;-49
2020/12/26 06:02:20;;;;;;;0.30;0.10;;;2.40;99.90;;;;;;5029493;28;20049;-48
2020/12/26 06:04:55;;;;;;;1.95;0.10;;;2.40;99.90;;;;;;5029933;28;20049;-47
2020/12/26 06:07:29;;;;;;;0.10;0.10;;;2.40;99.90;;;;;;5032256;28;20410;-47
2020/12/26 06:09:59;;;;;;;0.15;0.10;;;2.40;99.90;;;;;;5028062;28;20052;-49
2020/12/26 06:12:27;;;;;;;0.52;0.10;;;2.40;99.90;;;;;;5019448;28;20375;-48
2020/12/26 06:14:54;;;;;;;0.10;0.10;;;2.40;99.90;;;;;;5031253;28;20137;-48
2020/12/26 06:17:32;;;;;;;0.30;0.00;;;2.50;99.90;;;;;;5031706;28;20399;-48
2020/12/26 06:20:07;;;;;;;0.10;0.00;;;2.40;99.90;;;;;;5031547;28;20057;-48
2020/12/26 06:22:48;;;;;;;1.02;0.10;;;2.50;99.90;;;;;;5029692;28;20053;-49
2020/12/26 06:25:19;;;;;;;1.98;0.10;;;2.40;99.90;;;;;;5019385;28;20054;-48
2020/12/26 06:27:52;;;;;;;0.00;0.00;;;2.40;99.90;;;;;;5029200;28;20057;-48
2020/12/26 06:30:22;;;;;;;0.00;0.00;;;2.40;99.90;;;;;;5031464;28;20057;-48
2020/12/26 06:32:50;;;;;;;0.00;0.00;;;2.40;99.90;;;;;;5030632;28;20049;-48
2020/12/26 06:35:20;;;;;;;0.10;0.00;;;2.50;99.90;;;;;;5028648;28;20052;-48
2020/12/26 06:38:10;;;;;;;0.25;0.10;;;2.50;99.90;;;;;;5018554;28;20402;-48
2020/12/26 06:40:38;;;;;;;0.00;0.00;;;2.50;99.90;;;;;;5026234;28;20384;-48
2020/12/26 06:43:05;;;;;;;1.25;0.03;;;2.60;99.90;;;;;;5017780;28;20045;-48
2020/12/26 06:45:33;;;;;;;0.00;0.00;;;2.50;99.90;;;;;;5021170;28;20245;-48
2020/12/26 06:48:00;;;;;;;0.40;0.00;;;2.60;99.90;;;;;;5028232;28;20068;-49
2020/12/26 06:50:29;;;;;;;58.35;32.28;;;2.60;99.90;;;;;;5019250;28;20048;-49
2020/12/26 06:52:56;;;;;;;18.95;11.32;;;2.50;99.90;;;;;;5026924;28;20038;-48
2020/12/26 06:55:40;;;;;;;1.80;0.50;;;2.50;99.90;;;;;;5012646;28;20062;-49
2020/12/26 06:58:12;;;;;;;0.40;0.30;;;2.50;99.90;;;;;;5030521;28;20067;-48
2020/12/26 07:00:38;;;;;;;0.10;0.10;;;2.50;99.90;;;;;;5022434;28;20049;-48
2020/12/26 07:03:29;;;;;;;0.00;0.00;;;2.60;99.90;;;;;;5018415;28;20046;-48
2020/12/26 07:05:57;;;;;;;0.20;0.20;;;2.60;99.90;;;;;;5025696;28;20052;-48
2020/12/26 07:08:25;;;;;;;0.20;0.10;;;2.60;99.90;;;;;;5012786;28;20388;-48
2020/12/26 07:10:52;;;;;;;0.20;0.10;;;2.70;99.90;;;;;;5029509;28;20048;-48
2020/12/26 07:13:44;;;;;;;0.10;0.10;;;2.60;99.90;;;;;;5021542;28;20057;-48
2020/12/26 07:16:46;;;;;;;0.45;0.30;;;2.60;99.90;;;;;;5016370;28;20049;-48
2020/12/26 07:19:21;;;;;;;1.48;0.40;;;2.70;99.90;;;;;;5028676;28;20489;-49
2020/12/26 07:21:52;;;;;;;0.25;0.25;;;2.70;99.90;;;;;;5028772;28;20045;-48
2020/12/26 07:24:23;;;;;;;0.10;0.03;;;2.60;99.90;;;;;;5019796;28;20049;-48
2020/12/26 07:26:50;;;;;;;0.00;0.00;;;2.70;99.90;;;;;;5021365;28;20056;-49
2020/12/26 07:29:27;;;;;;;1.63;0.75;;;2.60;99.90;;;;;;5030616;28;20045;-48
2020/12/26 07:31:54;;;;;;;0.28;0.10;;;2.70;99.90;;;;;;5028267;28;20061;-49
2020/12/26 07:34:38;;;;;;;0.10;0.08;;;2.70;99.90;;;;;;5029567;28;20471;-49
2020/12/26 07:37:05;;;;;;;0.70;0.70;;;2.70;99.90;;;;;;5027100;28;20060;-48
2020/12/26 07:39:32;;;;;;;0.50;0.50;;;2.70;99.90;;;;;;5020984;28;20056;-49
2020/12/26 07:41:59;;;;;;;0.10;0.10;;;2.70;99.90;;;;;;5029935;28;20402;-48
2020/12/26 07:44:28;;;;;;;0.00;0.00;;;2.70;99.90;;;;;;5027897;28;20049;-48
2020/12/26 07:46:55;;;;;;;0.10;0.08;;;2.70;99.90;;;;;;5029677;28;20399;-50
2020/12/26 07:49:26;;;;;;;2.35;0.65;;;2.60;99.90;;;;;;5029919;28;20387;-48
2020/12/26 07:52:06;;;;;;;12.77;5.95;;;2.60;99.90;;;;;;5028593;28;20073;-48
2020/12/26 07:54:33;;;;;;;12.20;5.25;;;2.50;99.90;;;;;;5027623;28;20053;-49
2020/12/26 07:56:59;;;;;;;0.10;0.08;;;2.60;99.90;;;;;;5027085;28;20561;-49
2020/12/26 07:59:27;;;;;;;0.00;0.00;;;2.50;99.90;;;;;;5014462;28;20448;-49
2020/12/26 08:01:55;;;;;;;0.10;0.08;;;2.50;99.90;;;;;;5023960;28;20280;-49
2020/12/26 08:04:22;;;;;;;0.28;0.25;;;2.50;99.90;;;;;;5018061;28;20064;-48
2020/12/26 08:06:50;;;;;;;0.50;0.40;;;2.50;99.90;;;;;;5026612;28;20053;-48
2020/12/26 08:09:18;;;;;;;0.68;0.38;;;2.50;99.90;;;;;;5028708;28;20057;-48
2020/12/26 08:11:45;;;;;;;32.78;22.35;;;2.50;99.90;;;;;;5030365;28;20056;-49
2020/12/26 08:14:15;;;;;;;6.72;4.03;;;2.50;99.90;;;;;;5026545;28;20045;-48
2020/12/26 08:16:41;;;;;;;2.20;1.50;;;2.60;99.90;;;;;;5012722;28;20391;-49
2020/12/26 08:19:08;;;;;;;8.48;7.97;;;2.60;99.90;;;;;;5027322;28;20053;-48
2020/12/26 08:21:34;;;;;;;1.23;1.13;;;2.60;99.90;;;;;;5028283;28;20515;-48
2020/12/26 08:24:04;;;;;;;162.75;58.55;;;2.70;99.90;;;;;;5022934;28;20053;-48
2020/12/26 08:26:32;;;;;;;2.80;0.90;;;2.60;99.90;;;;;;5021583;28;20049;-48
2020/12/26 08:29:01;;;;;;;72.25;40.38;;;2.70;99.90;;;;;;5033659;28;20377;-49
2020/12/26 08:31:30;;;;;;;4.43;1.80;;;2.70;99.90;;;;;;5031312;28;20076;-48
2020/12/26 08:34:32;;;;;;;10.45;6.35;;;2.70;99.90;;;;;;5042352;28;20044;-48
2020/12/26 08:37:09;;;;;;;6.22;5.35;;;2.70;99.90;;;;;;5024531;28;20050;-48
2020/12/26 08:39:39;;;;;;;8.52;7.75;;;2.70;99.90;;;;;;5023578;28;20056;-48
2020/12/26 08:42:11;;;;;;;0.85;0.43;;;2.80;99.90;;;;;;5021136;28;20056;-49
2020/12/26 08:44:38;;;;;;;0.10;0.10;;;2.80;99.90;;;;;;5028970;28;20068;-48
2020/12/26 08:47:06;;;;;;;4.35;1.70;;;2.80;99.90;;;;;;5033681;28;20441;-52
2020/12/26 08:49:33;;;;;;;6.43;4.35;;;2.80;99.90;;;;;;5033623;28;20055;-48
2020/12/26 08:52:01;;;;;;;0.30;0.20;;;2.90;99.90;;;;;;5024545;28;20057;-49
2020/12/26 08:54:46;;;;;;;0.95;0.57;;;2.80;99.90;;;;;;5027927;28;20053;-48
2020/12/26 08:57:19;;;;;;;0.60;0.40;;;2.80;99.90;;;;;;5032430;28;20385;-49
2020/12/26 08:59:46;;;;;;;1.10;0.22;;;2.80;99.90;;;;;;5018854;28;20157;-49
2020/12/26 09:02:13;;;;;;;0.20;0.10;;;2.80;99.90;;;;;;5031096;28;20041;-48
2020/12/26 09:04:39;;;;;;;0.50;0.40;;;2.80;99.90;;;;;;5023578;28;20767;-49
2020/12/26 09:07:22;;;;;;;0.30;0.20;;;2.80;99.90;;;;;;5025485;28;20046;-48
2020/12/26 09:09:48;;;;;;;1.05;0.55;;;2.90;99.90;;;;;;5022704;28;20058;-49
2020/12/26 09:12:15;;;;;;;0.95;0.60;;;2.90;99.90;;;;;;5019112;28;20073;-49
2020/12/26 09:14:42;;;;;;;0.90;0.50;;;2.90;99.90;;;;;;5028079;28;20053;-48
2020/12/26 09:17:09;;;;;;;0.63;0.50;;;2.90;99.90;;;;;;5023962;28;20049;-49
2020/12/26 09:19:43;;;;;;;2.00;0.75;;;2.90;99.90;;;;;;5031527;28;20074;-48
2020/12/26 09:22:13;;;;;;;5.80;2.25;;;3.00;99.90;;;;;;5032029;28;20038;-48
2020/12/26 09:24:40;;;;;;;0.40;0.30;;;3.00;99.90;;;;;;5031026;28;20045;-49
2020/12/26 09:27:20;;;;;;;1.98;1.52;;;3.10;99.90;;;;;;5030547;28;20073;-49
2020/12/26 09:29:49;;;;;;;0.85;0.82;;;3.10;99.90;;;;;;5025394;28;20058;-49
2020/12/26 09:32:17;;;;;;;1.13;0.80;;;3.10;99.90;;;;;;5028258;28;20060;-49
2020/12/26 09:34:43;;;;;;;0.40;0.30;;;3.20;99.90;;;;;;5032611;28;20049;-48
2020/12/26 09:37:10;;;;;;;2.05;0.90;;;3.20;99.90;;;;;;5031031;28;20128;-49
2020/12/26 09:39:38;;;;;;;0.30;0.30;;;3.30;99.90;;;;;;5027148;28;20388;-51
2020/12/26 09:42:05;;;;;;;4.75;3.50;;;3.20;99.90;;;;;;5032471;28;20969;-51
2020/12/26 09:44:31;;;;;;;3.22;2.20;;;3.30;99.90;;;;;;5033244;28;20045;-48
2020/12/26 09:47:04;;;;;;;3.05;1.67;;;3.30;99.90;;;;;;5027885;28;20057;-48
2020/12/26 09:49:31;;;;;;;1.00;0.82;;;3.30;99.90;;;;;;5028877;28;20407;-48
2020/12/26 09:51:57;;;;;;;1.90;0.63;;;3.30;99.90;;;;;;5028529;28;20380;-48
2020/12/26 09:54:24;;;;;;;0.65;0.60;;;3.40;99.90;;;;;;5029122;28;20060;-52
2020/12/26 09:56:54;;;;;;;7.45;3.58;;;3.40;99.90;;;;;;5020462;28;20067;-49
2020/12/26 09:59:20;;;;;;;8.55;4.15;;;3.50;99.90;;;;;;5018078;28;20042;-48
2020/12/26 10:01:47;;;;;;;2.50;1.02;;;3.50;99.90;;;;;;5024743;28;20042;-48
2020/12/26 10:04:13;;;;;;;1.67;0.90;;;3.60;99.90;;;;;;5027265;28;20452;-52
2020/12/26 10:06:43;;;;;;;0.03;0.00;;;3.70;99.90;;;;;;5028156;28;20394;-50
2020/12/26 10:09:09;;;;;;;0.03;0.00;;;3.70;99.90;;;;;;5015612;28;20057;-51
2020/12/26 10:11:36;;;;;;;1.13;0.77;;;3.80;99.90;;;;;;5031463;28;20458;-51
2020/12/26 10:14:02;;;;;;;0.90;0.68;;;3.80;99.90;;;;;;5030431;28;20059;-48
2020/12/26 10:16:29;;;;;;;0.60;0.40;;;3.80;99.90;;;;;;5030932;28;20042;-49
2020/12/26 10:18:55;;;;;;;1.85;0.20;;;3.90;99.90;;;;;;5024628;28;20052;-47
2020/12/26 10:21:21;;;;;;;0.80;0.50;;;3.90;99.90;;;;;;5020922;28;20049;-48
2020/12/26 10:23:48;;;;;;;0.10;0.05;;;4.00;99.90;;;;;;5027651;28;20145;-48
2020/12/26 10:26:14;;;;;;;0.30;0.20;;;3.90;99.90;;;;;;5028141;28;20067;-49
2020/12/26 10:28:41;;;;;;;0.80;0.50;;;4.00;99.90;;;;;;5026064;28;20056;-49
2020/12/26 10:31:09;;;;;;;0.35;0.15;;;4.00;99.90;;;;;;5016819;28;20048;-49
2020/12/26 10:33:35;;;;;;;0.52;0.30;;;3.90;99.90;;;;;;5025380;28;20501;-50
2020/12/26 10:36:02;;;;;;;0.60;0.50;;;4.00;99.90;;;;;;5024840;28;20102;-49
2020/12/26 10:38:29;;;;;;;0.20;0.20;;;3.90;99.90;;;;;;5017538;28;20052;-49
2020/12/26 10:40:55;;;;;;;5.25;1.30;;;3.90;99.90;;;;;;5021430;28;20051;-49
2020/12/26 10:43:22;;;;;;;111.50;45.08;;;4.00;99.90;;;;;;5020177;28;20042;-48
2020/12/26 10:45:48;;;;;;;1.15;0.75;;;3.90;99.90;;;;;;5026136;28;20044;-49
2020/12/26 10:48:14;;;;;;;3.20;2.83;;;4.00;99.90;;;;;;5027393;28;20057;-49
2020/12/26 10:50:41;;;;;;;0.52;0.10;;;4.00;99.90;;;;;;5027268;28;20050;-49
2020/12/26 10:53:07;;;;;;;1.58;0.20;;;4.00;99.90;;;;;;5025630;28;20054;-49
2020/12/26 10:55:35;;;;;;;0.30;0.20;;;4.00;99.90;;;;;;5025976;28;20053;-49
2020/12/26 10:58:02;;;;;;;1.25;0.20;;;4.00;99.90;;;;;;5027011;28;20054;-49
2020/12/26 11:00:28;;;;;;;0.10;0.10;;;4.00;99.90;;;;;;5024849;28;20068;-48
2020/12/26 11:02:55;;;;;;;1.25;0.30;;;4.00;99.90;;;;;;5028563;28;20041;-49
2020/12/26 11:05:22;;;;;;;0.20;0.10;;;4.00;99.90;;;;;;5028912;28;20418;-48
2020/12/26 11:07:49;;;;;;;1.05;0.30;;;4.00;99.90;;;;;;5026304;28;20049;-49
2020/12/26 11:10:16;;;;;;;0.10;0.00;;;4.00;99.90;;;;;;5025472;28;20054;-49
2020/12/26 11:12:42;;;;;;;0.30;0.10;;;4.00;99.90;;;;;;5028542;28;20045;-49
2020/12/26 11:15:09;;;;;;;0.28;0.00;;;4.00;99.90;;;;;;5027604;28;20063;-50
2020/12/26 11:17:35;;;;;;;0.57;0.30;;;4.10;99.90;;;;;;5030287;28;20041;-49
2020/12/26 11:20:03;;;;;;;0.20;0.10;;;4.00;99.90;;;;;;5024249;28;20053;-48
2020/12/26 11:22:30;;;;;;;3.08;0.65;;;4.00;99.90;;;;;;5029292;28;20533;-50
2020/12/26 11:24:56;;;;;;;0.10;0.10;;;3.90;99.90;;;;;;5027815;28;20407;-49
2020/12/26 11:27:23;;;;;;;11.55;4.70;;;4.00;99.90;;;;;;5029969;28;20045;-49
2020/12/26 11:29:51;;;;;;;3.90;0.82;;;4.00;99.90;;;;;;5025308;28;20048;-49
2020/12/26 11:32:17;;;;;;;3.00;1.60;;;3.90;99.90;;;;;;5017306;28;20498;-48
2020/12/26 11:34:44;;;;;;;0.40;0.28;;;3.90;99.90;;;;;;5025404;28;20077;-49
2020/12/26 11:37:10;;;;;;;0.30;0.17;;;4.00;99.90;;;;;;5025349;28;20045;-49
2020/12/26 11:39:37;;;;;;;1.38;0.50;;;4.00;99.90;;;;;;5020414;28;20166;-50
2020/12/26 11:42:04;;;;;;;1.08;0.10;;;4.00;99.90;;;;;;5025061;28;20053;-49
2020/12/26 11:44:30;;;;;;;0.30;0.10;;;4.00;99.90;;;;;;5026608;28;20073;-49
2020/12/26 11:47:00;;;;;;;0.95;0.20;;;4.10;99.90;;;;;;5024008;28;20052;-51
2020/12/26 11:49:27;;;;;;;0.30;0.10;;;4.10;99.90;;;;;;5026324;28;20721;-49
2020/12/26 11:51:54;;;;;;;0.40;0.20;;;4.10;99.90;;;;;;5026794;28;20108;-49
2020/12/26 11:54:22;;;;;;;0.22;0.20;;;4.10;99.90;;;;;;5025286;28;20052;-49
2020/12/26 11:56:51;;;;;;;0.43;0.08;;;4.10;99.90;;;;;;5024372;28;20069;-49
2020/12/26 11:59:18;;;;;;;1.63;0.20;;;4.20;99.90;;;;;;5026789;28;20041;-48
2020/12/26 12:01:44;;;;;;;0.68;0.63;;;4.30;99.90;;;;;;5033954;28;20046;-48
2020/12/26 12:04:11;;;;;;;1.75;0.63;;;4.40;99.90;;;;;;5028839;28;20132;-49
2020/12/26 12:06:38;;;;;;;4.25;1.25;;;4.40;99.90;;;;;;5030501;28;20501;-48
2020/12/26 12:09:06;;;;;;;4.40;1.17;;;4.50;99.90;;;;;;5025842;28;20056;-48
2020/12/26 12:11:33;;;;;;;0.20;0.10;;;4.60;99.90;;;;;;5025942;28;20045;-49
2020/12/26 12:14:00;;;;;;;0.40;0.30;;;4.60;99.90;;;;;;5025766;28;20108;-48
2020/12/26 12:16:27;;;;;;;0.20;0.10;;;4.70;99.90;;;;;;5024192;28;20107;-48
2020/12/26 12:18:54;;;;;;;2.95;0.70;;;4.70;99.90;;;;;;5028542;28;20045;-49
2020/12/26 12:21:21;;;;;;;0.45;0.20;;;4.70;99.90;;;;;;5027925;28;20054;-49
2020/12/26 12:23:48;;;;;;;2.72;0.10;;;4.70;99.90;;;;;;5027517;28;20053;-49
2020/12/26 12:26:25;;;;;;;1.55;0.10;;;4.70;99.90;;;;;;5027931;28;20057;-49
2020/12/26 12:28:54;;;;;;;0.50;0.03;;;4.50;99.90;;;;;;5025825;28;20052;-48
2020/12/26 12:31:23;;;;;;;0.80;0.17;;;4.40;99.90;;;;;;5032102;28;20089;-48
2020/12/26 12:33:51;;;;;;;0.20;0.20;;;4.40;99.90;;;;;;5029698;28;20049;-49
2020/12/26 12:36:18;;;;;;;0.93;0.20;;;4.20;99.90;;;;;;5027920;28;20060;-49
2020/12/26 12:38:44;;;;;;;0.85;0.35;;;4.10;99.90;;;;;;5013035;28;20049;-49
2020/12/26 12:41:14;;;;;;;0.52;0.20;;;4.10;99.90;;;;;;5028780;28;20049;-49
2020/12/26 12:43:42;;;;;;;0.20;0.10;;;4.10;99.90;;;;;;5028730;28;20060;-49
2020/12/26 12:46:10;;;;;;;0.30;0.00;;;4.10;99.90;;;;;;5032246;28;20044;-49
2020/12/26 12:48:38;;;;;;;3.92;1.00;;;4.00;99.90;;;;;;5012704;28;20561;-49
2020/12/26 12:51:05;;;;;;;1.45;0.13;;;4.00;99.90;;;;;;5028631;28;20049;-48
2020/12/26 12:53:32;;;;;;;0.73;0.45;;;4.00;99.90;;;;;;5023166;28;20062;-49
2020/12/26 12:55:58;;;;;;;1.17;0.00;;;4.00;99.90;;;;;;5019970;28;20041;-49
2020/12/26 12:58:25;;;;;;;0.17;0.00;;;4.00;99.90;;;;;;5029034;28;21217;-49
2020/12/26 13:00:52;;;;;;;1.05;0.40;;;4.00;99.90;;;;;;5027325;28;20041;-49
2020/12/26 13:03:18;;;;;;;1.45;0.20;;;4.00;99.90;;;;;;5027382;28;20038;-48